createdAt,value
2019-05-05T00:00:11.373Z,1.64
2019-05-05T00:03:56.760Z,1.55
2019-05-05T00:07:30.276Z,1.2
2019-05-05T00:11:28.069Z,2.21
2019-05-05T00:15:08.657Z,1.64
2019-05-05T00:18:38.750Z,1.55
2019-05-05T00:22:08.848Z,1.52
2019-05-05T00:25:38.905Z,1.09
2019-05-05T00:29:08.894Z,1.53
2019-05-05T00:32:39.044Z,1.64
2019-05-05T00:36:09.013Z,1.32
2019-05-05T00:39:40.040Z,1.06
2019-05-05T00:43:10.052Z,1.75
2019-05-05T00:47:05.561Z,1.35
2019-05-05T00:50:35.597Z,1.55
2019-05-05T00:54:05.639Z,0.82
2019-05-05T00:57:35.697Z,1.31
2019-05-05T01:00:21.055Z,1.49
2019-05-05T01:03:51.284Z,1.21
2019-05-05T01:07:21.404Z,1.3
2019-05-05T01:10:51.493Z,1.49
2019-05-05T01:14:21.576Z,1.4
2019-05-05T01:17:51.742Z,1.23
2019-05-05T01:21:21.961Z,1.55
2019-05-05T01:24:51.987Z,1.78
2019-05-05T01:28:24.774Z,1.41
2019-05-05T01:31:56.696Z,1.52
2019-05-05T01:35:26.865Z,1.19
2019-05-05T01:39:15.198Z,1.51
2019-05-05T01:42:45.397Z,1.81
2019-05-05T01:46:15.463Z,1.26
2019-05-05T01:49:45.569Z,1.23
2019-05-05T01:53:15.701Z,1.76
2019-05-05T01:56:46.192Z,1.17
2019-05-05T02:00:16.288Z,1.32
2019-05-05T02:03:46.349Z,1.4
2019-05-05T02:07:16.449Z,1.49
2019-05-05T02:10:46.651Z,2.03
2019-05-05T02:14:16.826Z,1.29
2019-05-05T02:17:46.921Z,1.11
2019-05-05T02:21:17.023Z,1.24
2019-05-05T02:24:47.065Z,1.14
2019-05-05T02:28:17.311Z,1.25
2019-05-05T02:32:56.609Z,1.32
2019-05-05T02:36:26.791Z,1.25
2019-05-05T02:40:02.619Z,1.21
2019-05-05T02:43:36.977Z,1.54
2019-05-05T02:47:15.682Z,1.1
2019-05-05T02:50:57.558Z,1.57
2019-05-05T02:54:33.777Z,1.93
2019-05-05T02:58:03.935Z,1.85
2019-05-05T03:01:48.054Z,1.73
2019-05-05T03:05:18.030Z,2.94
2019-05-05T03:08:48.747Z,1.82
2019-05-05T03:12:20.153Z,1.97
2019-05-05T03:16:14.718Z,1.61
2019-05-05T03:19:45.344Z,1.65
2019-05-05T03:23:15.740Z,2.05
2019-05-05T03:26:46.216Z,1.91
2019-05-05T03:30:18.399Z,2.15
2019-05-05T03:33:48.986Z,1.44
2019-05-05T03:37:19.179Z,2.56
2019-05-05T03:40:54.180Z,2.12
2019-05-05T03:44:28.236Z,1.99
2019-05-05T03:47:58.361Z,2.35
2019-05-05T03:51:28.664Z,1.86
2019-05-05T03:54:58.921Z,2.58
2019-05-05T03:58:29.260Z,3.11
2019-05-05T04:02:09.470Z,2.79
2019-05-05T04:05:57.230Z,2.58
2019-05-05T04:09:27.317Z,3.7
2019-05-05T04:12:58.678Z,3.25
2019-05-05T04:16:35.524Z,2.46
2019-05-05T04:20:26.202Z,2.25
2019-05-05T04:23:56.193Z,3.01
2019-05-05T04:27:26.291Z,2.46
2019-05-05T04:30:56.370Z,2.94
2019-05-05T04:34:26.443Z,3.46
2019-05-05T04:37:56.480Z,3.01
2019-05-05T04:41:26.600Z,2.51
2019-05-05T04:44:56.674Z,2.36
2019-05-05T04:48:35.137Z,2.09
2019-05-05T04:52:08.273Z,2.01
2019-05-05T04:55:38.432Z,1.55
2019-05-05T04:59:08.435Z,2.17
2019-05-05T05:00:13.856Z,2.51
2019-05-05T05:03:57.612Z,2.17
2019-05-05T05:07:27.705Z,2.12
2019-05-05T05:10:57.716Z,2.4
2019-05-05T05:14:27.760Z,1.64
2019-05-05T05:18:08.615Z,2.65
2019-05-05T05:21:38.709Z,2.1
2019-05-05T05:25:08.797Z,2.64
2019-05-05T05:28:38.821Z,2.66
2019-05-05T05:32:08.856Z,2.6
2019-05-05T05:35:38.865Z,2.14
2019-05-05T05:39:17.421Z,2.6
2019-05-05T05:42:47.389Z,3.14
2019-05-05T05:46:28.710Z,3.2
2019-05-05T05:50:05.239Z,2.79
2019-05-05T05:53:35.353Z,3.5
2019-05-05T05:57:05.481Z,2.95
2019-05-05T06:00:35.617Z,3.25
2019-05-05T06:04:05.700Z,2.95
2019-05-05T06:07:35.765Z,3.06
2019-05-05T06:11:05.857Z,4
2019-05-05T06:14:35.942Z,3.56
2019-05-05T06:18:05.955Z,3.23
2019-05-05T06:21:36.134Z,3.61
2019-05-05T06:25:06.922Z,3.66
2019-05-05T06:28:37.143Z,3.39
2019-05-05T06:32:07.182Z,3.16
2019-05-05T06:35:37.298Z,2.69
2019-05-05T06:39:07.718Z,2.8
2019-05-05T06:42:59.416Z,2.8
2019-05-05T06:46:34.224Z,3.3
2019-05-05T06:50:04.838Z,3.7
2019-05-05T06:53:34.978Z,3.19
2019-05-05T06:57:05.245Z,3.94
2019-05-05T07:00:13.968Z,3.06
2019-05-05T07:03:44.211Z,3.52
2019-05-05T07:07:14.702Z,2.59
2019-05-05T07:10:44.889Z,2.92
2019-05-05T07:14:14.911Z,2.86
2019-05-05T07:17:45.111Z,2.98
2019-05-05T07:21:15.073Z,2.46
2019-05-05T07:24:45.169Z,3.54
2019-05-05T07:28:15.262Z,3.33
2019-05-05T07:31:45.306Z,2.85
2019-05-05T07:35:21.897Z,2.79
2019-05-05T07:38:51.896Z,2.75
2019-05-05T07:42:24.163Z,2.86
2019-05-05T07:45:54.405Z,2.94
2019-05-05T07:49:24.519Z,3.15
2019-05-05T07:53:13.884Z,2.65
2019-05-05T07:56:45.163Z,3.2
2019-05-05T08:00:15.639Z,2.76
2019-05-05T08:03:45.640Z,3.24
2019-05-05T08:07:15.682Z,2.2
2019-05-05T08:11:01.337Z,3.9
2019-05-05T08:14:33.624Z,3.08
2019-05-05T08:18:24.339Z,2.89
2019-05-05T08:21:54.496Z,2.39
2019-05-05T08:26:05.458Z,3.2
2019-05-05T08:29:39.179Z,2.77
2019-05-05T08:33:09.303Z,2.95
2019-05-05T08:36:39.537Z,3.58
2019-05-05T08:40:09.798Z,3.09
2019-05-05T08:43:39.914Z,3.01
2019-05-05T08:47:10.012Z,3.28
2019-05-05T08:50:43.928Z,2.98
2019-05-05T08:54:14.418Z,2.94
2019-05-05T08:57:44.759Z,3.65
2019-05-05T09:00:13.907Z,3.2
2019-05-05T09:03:44.465Z,3.38
2019-05-05T09:07:14.616Z,3.17
2019-05-05T09:10:44.908Z,3.59
2019-05-05T09:14:15.114Z,4.32
2019-05-05T09:17:45.097Z,3.85
2019-05-05T09:21:15.163Z,4.3
2019-05-05T09:25:34.023Z,3.8
2019-05-05T09:29:34.721Z,3.89
2019-05-05T09:33:04.847Z,4.67
2019-05-05T09:36:35.109Z,3.96
2019-05-05T09:40:05.509Z,4.9
2019-05-05T09:43:35.539Z,4.75
2019-05-05T09:47:05.736Z,6.17
2019-05-05T09:50:35.912Z,5.44
2019-05-05T09:54:14.062Z,4.86
2019-05-05T09:57:44.543Z,5.46
2019-05-05T10:01:14.849Z,4.54
2019-05-05T10:04:44.933Z,5.06
2019-05-05T10:08:15.004Z,4.84
2019-05-05T10:11:45.158Z,5.06
2019-05-05T10:15:15.812Z,5.86
2019-05-05T10:18:45.935Z,5.31
2019-05-05T10:22:16.097Z,6.44
2019-05-05T10:25:48.700Z,5.39
2019-05-05T10:29:18.876Z,6.11
2019-05-05T10:32:48.935Z,6.08
2019-05-05T10:36:19.008Z,6.4
2019-05-05T10:39:51.627Z,5.74
2019-05-05T10:43:23.695Z,5.84
2019-05-05T10:46:54.002Z,6.29
2019-05-05T10:50:24.768Z,6.31
2019-05-05T10:53:55.032Z,6.46
2019-05-05T10:57:26.048Z,5.75
2019-05-05T11:00:24.361Z,7.47
2019-05-05T11:03:54.500Z,5.75
2019-05-05T11:07:24.598Z,5.51
2019-05-05T11:10:54.780Z,5.54
2019-05-05T11:14:24.859Z,5.5
2019-05-05T11:17:55.089Z,4.95
2019-05-05T11:21:25.108Z,4.2
2019-05-05T11:25:00.513Z,4.14
2019-05-05T11:28:31.154Z,5.15
2019-05-05T11:32:04.931Z,5.12
2019-05-05T11:35:54.131Z,5.69
2019-05-05T11:39:24.262Z,5.82
2019-05-05T11:42:54.426Z,5.46
2019-05-05T11:46:24.815Z,6.22
2019-05-05T11:49:56.708Z,5.8
2019-05-05T11:53:26.917Z,5.94
2019-05-05T11:56:56.910Z,5.31
2019-05-05T12:00:28.841Z,6.7
2019-05-05T12:03:58.963Z,7.14
2019-05-05T12:07:29.059Z,6.55
2019-05-05T12:11:00.510Z,6.25
2019-05-05T12:14:31.815Z,6.65
2019-05-05T12:18:03.776Z,6.21
2019-05-05T12:21:34.054Z,6.22
2019-05-05T12:25:36.450Z,6.94
2019-05-05T12:29:10.581Z,5.83
2019-05-05T12:32:40.576Z,6.22
2019-05-05T12:36:10.732Z,5.78
2019-05-05T12:39:40.805Z,6.01
2019-05-05T12:43:10.901Z,6.38
2019-05-05T12:46:48.901Z,7.54
2019-05-05T12:50:18.987Z,7.03
2019-05-05T12:53:49.110Z,8.55
2019-05-05T12:57:19.189Z,8.68
2019-05-05T13:00:14.663Z,8.18
2019-05-05T13:03:45.719Z,7.76
2019-05-05T13:07:15.829Z,9.79
2019-05-05T13:10:45.965Z,8.12
2019-05-05T13:14:16.019Z,7.81
2019-05-05T13:17:46.256Z,7.11
2019-05-05T13:23:44.492Z,7.12
2019-05-05T13:27:19.556Z,6.9
2019-05-05T13:30:50.020Z,6.36
2019-05-05T13:34:20.037Z,6.35
2019-05-05T13:37:50.154Z,6.18
2019-05-05T13:41:20.273Z,8.03
2019-05-05T13:47:12.515Z,8.85
2019-05-05T13:50:45.366Z,6.11
2019-05-05T13:54:15.579Z,6.09
2019-05-05T13:57:45.703Z,6.38
2019-05-05T14:01:15.861Z,5.95
2019-05-05T14:04:45.948Z,5.46
2019-05-05T14:08:16.059Z,6.04
2019-05-05T14:11:46.098Z,6.31
2019-05-05T14:15:17.074Z,4.72
2019-05-05T14:18:47.154Z,6.5
2019-05-05T14:22:17.228Z,5.4
2019-05-05T14:25:47.347Z,7.28
2019-05-05T14:29:40.053Z,5.2
2019-05-05T14:33:14.532Z,4.45
2019-05-05T14:36:50.358Z,5
2019-05-05T14:40:20.470Z,5.33
2019-05-05T14:43:50.539Z,4.8
2019-05-05T14:47:20.539Z,5.76
2019-05-05T14:50:50.680Z,4.4
2019-05-05T14:54:20.907Z,5.38
2019-05-05T14:57:51.042Z,4.5
2019-05-05T15:00:20.399Z,4.66
2019-05-05T15:03:50.563Z,4.26
2019-05-05T15:07:31.591Z,5.02
2019-05-05T15:11:14.201Z,4.96
2019-05-05T15:14:44.404Z,3.88
2019-05-05T15:18:14.687Z,5.55
2019-05-05T15:21:44.823Z,5.47
2019-05-05T15:25:15.044Z,5.06
2019-05-05T15:28:57.742Z,4.01
2019-05-05T15:32:29.386Z,4.02
2019-05-05T15:35:59.399Z,4.2
2019-05-05T15:39:29.461Z,5.34
2019-05-05T15:42:59.517Z,5.02
2019-05-05T15:46:29.627Z,4.86
2019-05-05T15:49:59.787Z,5.05
2019-05-05T15:53:29.929Z,5.16
2019-05-05T15:57:05.333Z,4.94
2019-05-05T16:00:38.617Z,6.06
2019-05-05T16:04:08.649Z,6.08
2019-05-05T16:07:39.817Z,5.14
2019-05-05T16:11:09.960Z,5.74
2019-05-05T16:14:49.472Z,6.64
2019-05-05T16:18:25.577Z,5.32
2019-05-05T16:21:58.828Z,5.16
2019-05-05T16:25:28.943Z,5.1
2019-05-05T16:28:58.931Z,5.09
2019-05-05T16:32:29.004Z,5.39
2019-05-05T16:35:59.212Z,5.99
2019-05-05T16:39:29.227Z,5.7
2019-05-05T16:42:59.377Z,6.29
2019-05-05T16:46:29.435Z,6.41
2019-05-05T16:49:59.534Z,4.83
2019-05-05T16:53:37.697Z,5.16
2019-05-05T16:57:07.816Z,6.45
2019-05-05T17:00:17.156Z,8.75
2019-05-05T17:03:47.279Z,5.64
2019-05-05T17:07:17.382Z,6.47
2019-05-05T17:10:47.618Z,5.62
2019-05-05T17:14:25.230Z,5.19
2019-05-05T17:18:05.279Z,5.14
2019-05-05T17:22:04.021Z,4.76
2019-05-05T17:25:34.311Z,4.74
2019-05-05T17:29:04.545Z,5.36
2019-05-05T17:32:34.588Z,4.86
2019-05-05T17:36:04.698Z,4.14
2019-05-05T17:39:39.773Z,4.65
2019-05-05T17:43:50.536Z,4.44
2019-05-05T17:47:26.004Z,5
2019-05-05T17:53:31.376Z,4.49
2019-05-05T17:57:03.366Z,4.05
2019-05-05T18:00:39.265Z,3.42
2019-05-05T18:04:09.449Z,3.42
2019-05-05T18:07:44.094Z,2.89
2019-05-05T18:11:20.322Z,3.11
2019-05-05T18:14:50.656Z,2.39
2019-05-05T18:18:20.769Z,2.31
2019-05-05T18:21:50.828Z,2.36
2019-05-05T18:25:20.834Z,2.86
2019-05-05T18:28:50.929Z,2.83
2019-05-05T18:32:21.054Z,1.85
2019-05-05T18:35:51.134Z,2.36
2019-05-05T18:39:21.182Z,2.26
2019-05-05T18:42:51.383Z,2.77
2019-05-05T18:46:21.655Z,1.77
2019-05-05T18:49:53.812Z,2.86
2019-05-05T18:53:24.137Z,2.39
2019-05-05T18:56:54.192Z,2.34
2019-05-05T19:00:26.275Z,2.79
2019-05-05T19:06:57.217Z,1.92
2019-05-05T19:10:27.363Z,2.35
2019-05-05T19:13:58.412Z,4.21
2019-05-05T19:17:28.962Z,3.69
2019-05-05T19:21:08.341Z,2.89
2019-05-05T19:24:38.465Z,2.61
2019-05-05T19:28:08.914Z,2.97
2019-05-05T19:31:39.057Z,2.49
2019-05-05T19:35:09.543Z,2.67
2019-05-05T19:38:39.722Z,2.17
2019-05-05T19:42:09.790Z,2.89
2019-05-05T19:45:39.795Z,3.29
2019-05-05T19:49:17.901Z,3.15
2019-05-05T19:52:48.128Z,2.51
2019-05-05T19:56:18.260Z,2.2
2019-05-05T19:59:48.302Z,3.02
2019-05-05T20:03:18.885Z,2.29
2019-05-05T20:06:49.078Z,3.49
2019-05-05T20:10:19.201Z,2.1
2019-05-05T20:13:49.360Z,2.69
2019-05-05T20:17:29.377Z,3.52
2019-05-05T20:21:03.904Z,3.2
2019-05-05T20:24:34.879Z,2
2019-05-05T20:28:04.982Z,3.17
2019-05-05T20:31:35.129Z,5.79
2019-05-05T20:35:10.968Z,2.95
2019-05-05T20:38:50.284Z,1.88
2019-05-05T20:42:20.327Z,2.2
2019-05-05T20:45:50.366Z,2.49
2019-05-05T20:49:20.513Z,3.33
2019-05-05T20:52:50.628Z,2.45
2019-05-05T20:56:20.669Z,3.31
2019-05-05T20:59:50.732Z,2.38
2019-05-05T21:00:17.962Z,3.42
2019-05-05T21:03:48.025Z,2.39
2019-05-05T21:07:18.194Z,3.38
2019-05-05T21:10:48.208Z,3.14
2019-05-05T21:14:31.102Z,2.99
2019-05-05T21:18:05.898Z,3.52
2019-05-05T21:21:38.585Z,4.49
2019-05-05T21:25:23.922Z,3.69
2019-05-05T21:28:54.046Z,3.92
2019-05-05T21:32:25.359Z,4.86
2019-05-05T21:35:55.525Z,4.46
2019-05-05T21:39:25.640Z,5.05
2019-05-05T21:42:55.762Z,3.51
2019-05-05T21:46:25.769Z,4.24
2019-05-05T21:49:55.814Z,4.28
2019-05-05T21:54:43.905Z,4.71
2019-05-05T21:58:18.207Z,3.91
2019-05-05T22:01:49.678Z,3.46
2019-05-05T22:05:20.019Z,4.29
2019-05-05T22:08:50.076Z,3.29
2019-05-05T22:12:20.218Z,2.99
2019-05-05T22:15:50.252Z,2.71
2019-05-05T22:19:24.599Z,3.22
2019-05-05T22:22:54.676Z,3.49
2019-05-05T22:26:24.749Z,3.59
2019-05-05T22:30:09.037Z,2.8
2019-05-05T22:33:40.275Z,3.34
2019-05-05T22:37:10.285Z,3.78
2019-05-05T22:40:40.482Z,2.96
2019-05-05T22:44:10.514Z,2.79
2019-05-05T22:47:40.562Z,3.41
2019-05-05T22:51:10.567Z,3.25
2019-05-05T22:54:40.722Z,2.94
2019-05-05T22:58:10.828Z,3.11
2019-05-05T23:00:28.395Z,3.39
2019-05-05T23:04:14.421Z,4.81
2019-05-05T23:07:44.583Z,3.68
2019-05-05T23:11:14.643Z,2.46
2019-05-05T23:14:44.717Z,2.93
2019-05-05T23:18:25.643Z,2.9
2019-05-05T23:22:06.161Z,3.29
2019-05-05T23:25:39.153Z,3.15
2019-05-05T23:29:09.262Z,3.26
2019-05-05T23:32:39.299Z,4.81
2019-05-05T23:36:09.442Z,3.11
2019-05-05T23:39:39.519Z,2.86
2019-05-05T23:43:09.562Z,3.43
2019-05-05T23:46:39.591Z,3.08
2019-05-05T23:50:09.707Z,3.36
2019-05-05T23:53:39.817Z,2.6
2019-05-05T23:57:09.990Z,3.94
